createdAt,value
2023-02-02T00:01:03.049Z,11.38
2023-02-02T00:03:30.945Z,11.15
2023-02-02T00:05:57.811Z,11.68
2023-02-02T00:08:24.632Z,11.70
2023-02-02T00:10:51.737Z,12.40
2023-02-02T00:13:21.537Z,11.57
2023-02-02T00:15:48.255Z,12.25
2023-02-02T00:18:15.985Z,12.32
2023-02-02T00:20:42.710Z,11.63
2023-02-02T00:23:11.776Z,12.25
2023-02-02T00:25:43.854Z,12.77
2023-02-02T00:28:12.026Z,12.13
2023-02-02T00:30:40.237Z,12.43
2023-02-02T00:33:09.603Z,12.27
2023-02-02T00:35:42.793Z,11.98
2023-02-02T00:38:09.658Z,14.00
2023-02-02T00:40:36.463Z,14.38
2023-02-02T00:43:03.261Z,12.68
2023-02-02T00:45:30.798Z,13.75
2023-02-02T00:47:58.138Z,15.70
2023-02-02T00:50:25.485Z,14.82
2023-02-02T00:52:53.322Z,15.40
2023-02-02T00:55:20.589Z,13.63
2023-02-02T00:57:47.856Z,15.45
2023-02-02T01:00:18.111Z,13.98
2023-02-02T01:02:45.148Z,14.63
2023-02-02T01:05:12.889Z,13.95
2023-02-02T01:07:40.325Z,12.77
2023-02-02T01:10:09.624Z,12.20
2023-02-02T01:12:37.055Z,11.85
2023-02-02T01:15:04.584Z,11.05
2023-02-02T01:17:31.502Z,10.60
2023-02-02T01:19:59.772Z,12.88
2023-02-02T01:22:26.729Z,12.63
2023-02-02T01:24:53.663Z,10.75
2023-02-02T01:27:20.793Z,12.27
2023-02-02T01:29:47.988Z,11.65
2023-02-02T01:32:15.294Z,10.93
2023-02-02T01:34:43.585Z,12.13
2023-02-02T01:37:10.894Z,9.98
2023-02-02T01:39:37.974Z,9.63
2023-02-02T01:42:12.937Z,10.63
2023-02-02T01:45:07.526Z,10.55
2023-02-02T01:47:41.355Z,8.63
2023-02-02T01:50:10.351Z,10.20
2023-02-02T01:52:38.912Z,9.30
2023-02-02T01:55:14.401Z,9.15
2023-02-02T01:57:59.354Z,9.73
2023-02-02T02:00:27.855Z,10.38
2023-02-02T02:02:58.369Z,10.75
2023-02-02T02:05:34.188Z,10.95
2023-02-02T02:08:29.755Z,10.48
2023-02-02T02:10:57.260Z,9.65
2023-02-02T02:13:47.343Z,9.93
2023-02-02T02:16:24.008Z,9.05
2023-02-02T02:19:18.164Z,9.02
2023-02-02T02:22:11.515Z,9.15
2023-02-02T02:25:29.898Z,8.85
2023-02-02T02:28:35.788Z,9.43
2023-02-02T02:31:30.867Z,9.55
2023-02-02T02:34:32.134Z,10.07
2023-02-02T02:37:13.122Z,8.38
2023-02-02T02:39:58.431Z,9.02
2023-02-02T02:42:30.297Z,9.23
2023-02-02T02:45:02.576Z,8.00
2023-02-02T02:47:30.764Z,8.77
2023-02-02T02:49:57.604Z,8.48
2023-02-02T02:52:25.332Z,8.07
2023-02-02T02:54:56.059Z,7.57
2023-02-02T03:00:07.734Z,8.25
2023-02-02T03:03:07.381Z,7.57
2023-02-02T03:05:40.486Z,7.60
2023-02-02T03:08:17.673Z,7.55
2023-02-02T03:10:46.797Z,7.50
2023-02-02T03:13:19.234Z,8.10
2023-02-02T03:15:53.387Z,7.15
2023-02-02T03:18:25.523Z,8.07
2023-02-02T03:20:56.194Z,7.60
2023-02-02T03:25:55.643Z,7.15
2023-02-02T03:28:24.194Z,7.50
2023-02-02T03:30:57.812Z,8.57
2023-02-02T03:33:27.371Z,8.25
2023-02-02T03:35:57.217Z,8.13
2023-02-02T03:38:26.180Z,8.75
2023-02-02T03:40:53.185Z,8.98
2023-02-02T03:43:22.443Z,6.70
2023-02-02T03:45:55.012Z,6.45
2023-02-02T03:48:28.305Z,6.85
2023-02-02T03:50:59.198Z,7.32
2023-02-02T03:53:31.733Z,7.05
2023-02-02T03:56:01.543Z,9.40
2023-02-02T03:58:28.343Z,6.95
2023-02-02T04:01:04.707Z,7.75
2023-02-02T04:03:34.445Z,7.07
2023-02-02T04:06:06.417Z,7.50
2023-02-02T04:08:36.127Z,6.10
2023-02-02T04:11:03.175Z,7.03
2023-02-02T04:13:35.290Z,6.55
2023-02-02T04:16:11.337Z,6.65
2023-02-02T04:18:45.784Z,6.75
2023-02-02T04:21:13.048Z,8.20
2023-02-02T04:23:43.505Z,8.40
2023-02-02T04:26:10.443Z,7.43
2023-02-02T04:28:37.270Z,9.15
2023-02-02T04:31:05.833Z,5.78
2023-02-02T04:33:35.206Z,7.55
2023-02-02T04:36:08.540Z,5.80
2023-02-02T04:38:35.376Z,5.75
2023-02-02T04:41:07.864Z,6.28
2023-02-02T04:43:36.387Z,5.40
2023-02-02T04:46:04.445Z,5.75
2023-02-02T04:48:31.416Z,5.70
2023-02-02T04:51:04.165Z,6.40
2023-02-02T04:53:31.253Z,5.57
2023-02-02T04:56:06.922Z,5.75
2023-02-02T04:58:33.808Z,7.28
2023-02-02T05:01:01.931Z,4.25
2023-02-02T05:03:29.945Z,5.43
2023-02-02T05:06:05.626Z,4.10
2023-02-02T05:08:32.801Z,4.43
2023-02-02T05:11:01.116Z,5.13
2023-02-02T05:13:27.913Z,4.93
2023-02-02T05:15:57.438Z,4.90
2023-02-02T05:18:26.651Z,4.93
2023-02-02T05:20:54.939Z,4.05
2023-02-02T05:23:33.320Z,5.38
2023-02-02T05:26:00.004Z,5.15
2023-02-02T05:28:30.467Z,4.93
2023-02-02T05:30:57.666Z,5.45
2023-02-02T05:33:34.241Z,4.45
2023-02-02T05:36:01.059Z,4.63
2023-02-02T05:38:30.496Z,4.30
2023-02-02T05:41:04.784Z,4.63
2023-02-02T05:43:34.972Z,5.75
2023-02-02T05:46:05.489Z,5.03
2023-02-02T05:51:04.897Z,4.68
2023-02-02T05:53:33.605Z,6.18
2023-02-02T05:56:09.654Z,4.97
2023-02-02T05:58:36.695Z,3.97
2023-02-02T06:01:04.879Z,4.47
2023-02-02T06:03:32.960Z,4.63
2023-02-02T06:06:07.191Z,5.45
2023-02-02T06:08:37.376Z,4.88
2023-02-02T06:11:16.074Z,5.68
2023-02-02T06:13:50.644Z,5.03
2023-02-02T06:16:20.233Z,5.13
2023-02-02T06:18:48.513Z,5.00
2023-02-02T06:21:15.276Z,5.70
2023-02-02T06:23:45.701Z,4.82
2023-02-02T06:26:14.936Z,4.60
2023-02-02T06:28:43.103Z,5.75
2023-02-02T06:31:11.469Z,5.57
2023-02-02T06:33:38.392Z,4.07
2023-02-02T06:36:07.098Z,5.25
2023-02-02T06:38:33.961Z,4.90
2023-02-02T06:41:01.945Z,6.00
2023-02-02T06:43:29.872Z,4.93
2023-02-02T06:46:00.131Z,4.55
2023-02-02T06:48:27.778Z,4.25
2023-02-02T06:50:57.222Z,4.82
2023-02-02T06:53:23.968Z,4.47
2023-02-02T06:55:58.336Z,4.60
2023-02-02T06:58:25.086Z,4.65
2023-02-02T07:00:52.015Z,4.45
2023-02-02T07:03:21.448Z,5.05
2023-02-02T07:05:52.527Z,4.82
2023-02-02T07:08:19.231Z,4.43
2023-02-02T07:11:13.570Z,4.07
2023-02-02T07:13:32.715Z,5.20
2023-02-02T07:15:59.666Z,4.80
2023-02-02T07:18:26.722Z,4.50
2023-02-02T07:20:53.405Z,5.25
2023-02-02T07:23:20.103Z,6.05
2023-02-02T07:25:46.977Z,6.43
2023-02-02T07:28:13.664Z,4.82
2023-02-02T07:30:40.397Z,4.97
2023-02-02T07:33:07.175Z,6.63
2023-02-02T07:35:33.970Z,4.80
2023-02-02T07:38:00.724Z,5.00
2023-02-02T07:40:27.507Z,5.90
2023-02-02T07:42:54.277Z,4.93
2023-02-02T07:45:27.637Z,6.43
2023-02-02T07:47:59.161Z,4.85
2023-02-02T07:50:27.099Z,5.43
2023-02-02T07:52:54.110Z,4.78
2023-02-02T07:55:21.489Z,5.60
2023-02-02T07:57:51.483Z,5.30
2023-02-02T08:00:18.728Z,6.07
2023-02-02T08:02:48.498Z,5.57
2023-02-02T08:05:15.369Z,5.95
2023-02-02T08:07:42.081Z,5.95
2023-02-02T08:10:09.593Z,6.57
2023-02-02T08:12:36.349Z,6.25
2023-02-02T08:15:03.298Z,6.70
2023-02-02T08:17:30.053Z,6.80
2023-02-02T08:19:56.764Z,6.63
2023-02-02T08:22:23.617Z,6.13
2023-02-02T08:24:50.388Z,6.90
2023-02-02T08:27:17.202Z,6.10
2023-02-02T08:29:44.134Z,5.75
2023-02-02T08:32:10.863Z,5.97
2023-02-02T08:34:37.829Z,6.05
2023-02-02T08:37:04.781Z,5.20
2023-02-02T08:39:33.053Z,5.60
2023-02-02T08:41:59.753Z,5.93
2023-02-02T08:44:27.309Z,6.38
2023-02-02T08:47:11.288Z,5.30
2023-02-02T08:49:38.615Z,5.10
2023-02-02T08:52:12.654Z,6.57
2023-02-02T08:54:42.001Z,6.53
2023-02-02T08:57:10.840Z,5.88
2023-02-02T08:59:40.979Z,5.05
2023-02-02T09:02:11.073Z,4.70
2023-02-02T09:04:40.527Z,5.18
2023-02-02T09:07:07.265Z,4.75
2023-02-02T09:09:34.013Z,4.90
2023-02-02T09:12:00.690Z,4.85
2023-02-02T09:14:30.032Z,4.93
2023-02-02T09:16:59.290Z,4.45
2023-02-02T09:19:26.131Z,4.15
2023-02-02T09:21:52.848Z,4.47
2023-02-02T09:24:19.555Z,3.97
2023-02-02T09:26:50.798Z,4.20
2023-02-02T09:29:18.121Z,4.18
2023-02-02T09:31:47.077Z,4.70
2023-02-02T09:34:14.898Z,3.90
2023-02-02T09:36:42.946Z,4.00
2023-02-02T09:39:16.749Z,5.45
2023-02-02T09:42:02.302Z,5.68
2023-02-02T09:44:49.403Z,5.43
2023-02-02T09:47:22.369Z,4.93
2023-02-02T09:50:13.960Z,5.30
2023-02-02T09:52:48.705Z,4.72
2023-02-02T09:55:48.834Z,4.85
2023-02-02T09:58:38.565Z,5.30
2023-02-02T10:01:08.978Z,6.10
2023-02-02T10:03:57.197Z,5.47
2023-02-02T10:06:31.690Z,5.07
2023-02-02T10:09:17.248Z,5.47
2023-02-02T10:11:51.384Z,4.22
2023-02-02T10:14:46.163Z,5.10
2023-02-02T10:17:55.817Z,6.25
2023-02-02T10:20:35.019Z,5.68
2023-02-02T10:23:30.632Z,5.47
2023-02-02T10:26:07.681Z,5.50
2023-02-02T10:28:43.551Z,5.35
2023-02-02T10:31:36.895Z,4.90
2023-02-02T10:34:34.165Z,5.55
2023-02-02T10:37:19.891Z,6.82
2023-02-02T10:40:11.884Z,6.00
2023-02-02T10:43:15.419Z,6.07
2023-02-02T10:45:44.293Z,5.75
2023-02-02T10:48:17.026Z,5.30
2023-02-02T10:50:48.754Z,6.00
2023-02-02T10:53:16.683Z,4.78
2023-02-02T10:55:48.482Z,5.50
2023-02-02T10:58:30.207Z,6.38
2023-02-02T11:00:58.927Z,6.97
2023-02-02T11:03:29.101Z,8.55
2023-02-02T11:06:17.693Z,8.82
2023-02-02T11:08:52.709Z,8.35
2023-02-02T11:11:38.255Z,9.40
2023-02-02T11:14:07.802Z,8.05
2023-02-02T11:16:43.755Z,7.40
2023-02-02T11:19:22.144Z,6.13
2023-02-02T11:21:51.427Z,5.38
2023-02-02T11:24:33.605Z,6.03
2023-02-02T11:27:02.114Z,6.32
2023-02-02T11:29:43.204Z,6.40
2023-02-02T11:32:30.044Z,5.95
2023-02-02T11:35:08.872Z,6.53
2023-02-02T11:37:51.623Z,6.63
2023-02-02T11:40:34.114Z,5.80
2023-02-02T11:43:05.191Z,6.65
2023-02-02T11:45:41.774Z,6.03
2023-02-02T11:48:24.607Z,6.80
2023-02-02T11:50:56.550Z,5.20
2023-02-02T11:53:23.228Z,6.63
2023-02-02T11:55:50.733Z,7.50
2023-02-02T11:58:27.421Z,5.85
2023-02-02T12:00:58.422Z,5.63
2023-02-02T12:03:32.489Z,9.98
2023-02-02T12:05:59.388Z,14.43
2023-02-02T12:08:26.126Z,10.23
2023-02-02T12:11:03.066Z,6.70
2023-02-02T12:13:54.503Z,8.10
2023-02-02T12:16:53.588Z,10.27
2023-02-02T12:19:28.393Z,8.77
2023-02-02T12:22:24.018Z,9.15
2023-02-02T12:24:57.425Z,8.73
2023-02-02T12:27:42.938Z,11.05
2023-02-02T12:30:34.586Z,7.13
2023-02-02T12:33:19.022Z,7.85
2023-02-02T12:35:48.634Z,8.65
2023-02-02T12:38:36.589Z,13.07
2023-02-02T12:41:09.952Z,8.32
2023-02-02T12:43:45.283Z,9.00
2023-02-02T12:46:31.018Z,9.60
2023-02-02T12:49:21.977Z,13.65
2023-02-02T12:52:07.550Z,7.70
2023-02-02T12:54:52.119Z,8.02
2023-02-02T12:57:51.762Z,7.95
2023-02-02T13:00:34.655Z,9.35
2023-02-02T13:03:19.194Z,5.30
2023-02-02T13:06:04.681Z,8.00
2023-02-02T13:08:34.426Z,7.03
2023-02-02T13:11:29.998Z,6.07
2023-02-02T13:14:19.944Z,6.20
2023-02-02T13:16:51.803Z,6.70
2023-02-02T13:19:32.150Z,6.32
2023-02-02T13:22:01.984Z,6.45
2023-02-02T13:24:36.184Z,6.35
2023-02-02T13:27:06.374Z,5.85
2023-02-02T13:29:48.376Z,5.82
2023-02-02T13:32:37.397Z,6.03
2023-02-02T13:35:27.488Z,5.95
2023-02-02T13:38:05.721Z,7.38
2023-02-02T13:40:43.723Z,6.25
2023-02-02T13:43:51.466Z,5.65
2023-02-02T13:47:00.381Z,5.88
2023-02-02T13:49:32.841Z,6.35
2023-02-02T13:52:40.675Z,6.45
2023-02-02T13:55:26.808Z,5.82
2023-02-02T13:58:04.511Z,5.85
2023-02-02T14:00:36.354Z,5.85
2023-02-02T14:03:23.714Z,7.55
2023-02-02T14:06:10.785Z,8.27
2023-02-02T14:08:46.318Z,7.22
2023-02-02T14:11:24.864Z,6.93
2023-02-02T14:14:15.779Z,7.93
2023-02-02T14:16:46.126Z,7.68
2023-02-02T14:19:41.856Z,8.40
2023-02-02T14:22:12.196Z,9.23
2023-02-02T14:24:44.038Z,6.90
2023-02-02T14:27:10.847Z,10.27
2023-02-02T14:29:59.032Z,10.73
2023-02-02T14:32:27.766Z,9.27
2023-02-02T14:34:56.756Z,9.05
2023-02-02T14:37:26.627Z,7.82
2023-02-02T14:39:56.061Z,11.50
2023-02-02T14:43:18.082Z,10.27
2023-02-02T14:45:48.627Z,10.73
2023-02-02T14:48:23.631Z,11.00
2023-02-02T14:50:53.616Z,9.52
2023-02-02T14:53:28.880Z,11.45
2023-02-02T14:56:03.841Z,6.72
2023-02-02T14:58:34.959Z,7.07
2023-02-02T15:01:13.619Z,5.85
2023-02-02T15:04:02.076Z,5.82
2023-02-02T15:06:34.613Z,6.57
2023-02-02T15:09:20.237Z,6.50
2023-02-02T15:12:00.997Z,6.95
2023-02-02T15:14:50.651Z,6.75
2023-02-02T15:17:35.705Z,9.20
2023-02-02T15:20:30.974Z,5.60
2023-02-02T15:23:20.344Z,5.63
2023-02-02T15:26:08.708Z,9.43
2023-02-02T15:28:43.532Z,7.43
2023-02-02T15:31:31.850Z,8.73
2023-02-02T15:34:25.010Z,9.95
2023-02-02T15:36:58.825Z,11.18
2023-02-02T15:39:36.892Z,7.68
2023-02-02T15:42:26.286Z,8.68
2023-02-02T15:44:53.020Z,8.65
2023-02-02T15:47:28.986Z,11.45
2023-02-02T15:49:55.956Z,13.95
2023-02-02T15:52:29.754Z,8.82
2023-02-02T15:54:58.855Z,10.70
2023-02-02T15:57:28.688Z,10.50
2023-02-02T15:59:55.831Z,7.80
2023-02-02T16:02:28.403Z,7.63
2023-02-02T16:04:55.141Z,8.50
2023-02-02T16:07:30.031Z,7.95
2023-02-02T16:10:02.183Z,12.20
2023-02-02T16:12:28.986Z,12.82
2023-02-02T16:14:55.787Z,9.52
2023-02-02T16:17:28.440Z,10.13
2023-02-02T16:20:08.496Z,11.30
2023-02-02T16:22:37.230Z,9.45
2023-02-02T16:25:15.437Z,10.48
2023-02-02T16:27:46.320Z,12.13
2023-02-02T16:30:29.114Z,12.15
2023-02-02T16:32:55.952Z,10.85
2023-02-02T16:35:33.655Z,11.25
2023-02-02T16:38:33.182Z,10.10
2023-02-02T16:41:14.594Z,10.43
2023-02-02T16:43:43.008Z,10.55
2023-02-02T16:46:13.528Z,10.73
2023-02-02T16:48:42.652Z,9.75
2023-02-02T16:51:15.574Z,9.43
2023-02-02T16:54:14.594Z,8.13
2023-02-02T16:56:43.932Z,9.55
2023-02-02T16:59:24.723Z,8.05
2023-02-02T17:04:34.127Z,7.53
2023-02-02T17:07:14.271Z,7.95
2023-02-02T17:09:42.942Z,7.97
2023-02-02T17:12:35.322Z,7.40
2023-02-02T17:15:29.122Z,8.57
2023-02-02T17:17:56.692Z,7.65
2023-02-02T17:20:24.220Z,8.07
2023-02-02T17:23:03.195Z,8.98
2023-02-02T17:25:38.132Z,8.45
2023-02-02T17:28:11.152Z,8.10
2023-02-02T17:30:41.437Z,8.15
2023-02-02T17:33:17.026Z,8.10
2023-02-02T17:35:54.519Z,8.93
2023-02-02T17:38:23.641Z,9.77
2023-02-02T17:40:51.385Z,10.52
2023-02-02T17:43:18.164Z,9.85
2023-02-02T17:45:44.929Z,10.70
2023-02-02T17:48:14.051Z,9.15
2023-02-02T17:50:42.330Z,9.98
2023-02-02T17:53:14.191Z,7.80
2023-02-02T17:55:42.851Z,8.88
2023-02-02T17:58:13.049Z,8.27
2023-02-02T18:00:40.595Z,9.05
2023-02-02T18:03:19.308Z,10.02
2023-02-02T18:05:46.135Z,8.82
2023-02-02T18:08:13.432Z,9.18
2023-02-02T18:10:41.453Z,11.10
2023-02-02T18:13:11.269Z,9.23
2023-02-02T18:15:38.889Z,9.98
2023-02-02T18:18:05.619Z,7.43
2023-02-02T18:20:32.401Z,8.57
2023-02-02T18:22:59.101Z,10.13
2023-02-02T18:25:26.208Z,9.57
2023-02-02T18:27:55.396Z,10.13
2023-02-02T18:32:51.193Z,12.32
2023-02-02T18:35:18.011Z,11.57
2023-02-02T18:37:46.226Z,10.63
2023-02-02T18:40:15.495Z,11.90
2023-02-02T18:42:43.661Z,10.70
2023-02-02T18:45:13.278Z,11.30
2023-02-02T18:47:42.423Z,14.57
2023-02-02T18:50:11.708Z,18.95
2023-02-02T18:52:39.969Z,12.65
2023-02-02T18:55:07.051Z,12.13
2023-02-02T18:57:33.820Z,10.40
2023-02-02T19:00:00.651Z,11.25
2023-02-02T19:02:31.162Z,11.98
2023-02-02T19:05:18.525Z,12.68
2023-02-02T19:07:58.119Z,9.68
2023-02-02T19:10:28.388Z,11.45
2023-02-02T19:13:03.038Z,9.82
2023-02-02T19:15:39.650Z,11.32
2023-02-02T19:18:15.422Z,11.40
2023-02-02T19:20:43.174Z,12.05
2023-02-02T19:23:28.031Z,10.63
2023-02-02T19:25:56.206Z,10.65
2023-02-02T19:28:28.208Z,9.45
2023-02-02T19:31:00.519Z,11.20
2023-02-02T19:33:41.581Z,13.45
2023-02-02T19:36:19.118Z,11.82
2023-02-02T19:38:49.005Z,10.27
2023-02-02T19:41:21.488Z,10.23
2023-02-02T19:44:14.499Z,9.85
2023-02-02T19:46:48.297Z,10.30
2023-02-02T19:49:20.821Z,10.88
2023-02-02T19:51:55.803Z,12.15
2023-02-02T19:54:34.631Z,12.05
2023-02-02T19:57:14.596Z,14.60
2023-02-02T19:59:45.367Z,12.82
2023-02-02T20:02:33.394Z,11.48
2023-02-02T20:05:15.731Z,13.23
2023-02-02T20:07:44.567Z,11.43
2023-02-02T20:10:28.468Z,11.63
2023-02-02T20:12:56.046Z,10.80
2023-02-02T20:15:32.253Z,10.23
2023-02-02T20:18:02.433Z,9.73
2023-02-02T20:20:40.668Z,11.38
2023-02-02T20:23:29.147Z,10.88
2023-02-02T20:25:56.383Z,10.52
2023-02-02T20:28:44.970Z,9.88
2023-02-02T20:31:20.640Z,10.77
2023-02-02T20:33:53.426Z,10.65
2023-02-02T20:36:35.898Z,10.60
2023-02-02T20:39:27.953Z,10.55
2023-02-02T20:41:57.160Z,8.95
2023-02-02T20:44:27.589Z,12.23
2023-02-02T20:46:55.804Z,11.05
2023-02-02T20:49:25.507Z,11.15
2023-02-02T20:51:57.708Z,10.60
2023-02-02T20:54:25.501Z,10.70
2023-02-02T20:56:52.522Z,11.77
2023-02-02T20:59:20.186Z,11.48
2023-02-02T21:01:49.752Z,8.90
2023-02-02T21:04:17.799Z,8.07
2023-02-02T21:06:44.528Z,7.57
2023-02-02T21:09:11.609Z,9.48
2023-02-02T21:11:38.776Z,7.22
2023-02-02T21:14:05.614Z,6.47
2023-02-02T21:16:33.004Z,7.55
2023-02-02T21:18:59.755Z,8.15
2023-02-02T21:21:26.506Z,7.90
2023-02-02T21:23:53.571Z,7.82
2023-02-02T21:26:23.396Z,8.85
2023-02-02T21:28:50.128Z,7.55
2023-02-02T21:31:18.176Z,10.02
2023-02-02T21:33:46.684Z,8.75
2023-02-02T21:36:38.780Z,9.30
2023-02-02T21:39:17.891Z,9.95
2023-02-02T21:41:44.952Z,8.90
2023-02-02T21:44:16.492Z,9.95
2023-02-02T21:46:45.182Z,9.45
2023-02-02T21:49:24.068Z,9.63
2023-02-02T21:51:52.081Z,8.82
2023-02-02T21:54:29.062Z,9.35
2023-02-02T21:56:56.058Z,8.48
2023-02-02T21:59:27.192Z,9.55
2023-02-02T22:01:54.085Z,7.95
2023-02-02T22:04:25.759Z,8.63
2023-02-02T22:06:53.724Z,11.70
2023-02-02T22:09:26.009Z,10.43
2023-02-02T22:12:02.015Z,9.55
2023-02-02T22:14:39.834Z,9.27
2023-02-02T22:17:44.791Z,10.82
2023-02-02T22:20:34.613Z,10.30
2023-02-02T22:23:02.992Z,9.43
2023-02-02T22:25:35.599Z,11.48
2023-02-02T22:28:14.315Z,9.52
2023-02-02T22:30:42.237Z,7.82
2023-02-02T22:33:11.302Z,7.68
2023-02-02T22:35:38.337Z,6.40
2023-02-02T22:38:05.603Z,6.53
2023-02-02T22:40:32.515Z,5.63
2023-02-02T22:43:01.745Z,6.85
2023-02-02T22:45:29.000Z,6.80
2023-02-02T22:47:57.431Z,6.88
2023-02-02T22:50:29.462Z,7.50
2023-02-02T22:52:56.769Z,7.38
2023-02-02T22:55:24.929Z,7.10
2023-02-02T22:57:51.882Z,7.13
2023-02-02T23:00:29.663Z,6.10
2023-02-02T23:02:57.313Z,7.60
2023-02-02T23:05:26.413Z,7.43
2023-02-02T23:07:54.843Z,7.47
2023-02-02T23:10:25.784Z,7.35
2023-02-02T23:12:54.896Z,7.75
2023-02-02T23:15:22.065Z,7.30
2023-02-02T23:17:48.899Z,6.30
2023-02-02T23:20:16.341Z,5.85
2023-02-02T23:22:44.237Z,6.28
2023-02-02T23:25:12.124Z,5.38
2023-02-02T23:27:39.408Z,5.22
2023-02-02T23:30:07.770Z,5.65
2023-02-02T23:32:35.071Z,5.78
2023-02-02T23:35:04.343Z,5.05
2023-02-02T23:37:31.434Z,4.68
2023-02-02T23:39:58.198Z,4.57
2023-02-02T23:42:25.770Z,4.80
2023-02-02T23:44:52.907Z,4.53
2023-02-02T23:47:19.938Z,3.80
2023-02-02T23:49:46.918Z,4.30
2023-02-02T23:52:14.004Z,4.35
2023-02-02T23:54:41.994Z,4.97
2023-02-02T23:57:11.242Z,4.90
2023-02-02T23:59:37.967Z,5.15
